60M weather

Spencer Airport
Spencer, Massachusetts, United States

Public forecast

Using degrees Fahrenheit for public forecast. Weather courtesy of forecast.io.

METAR (pilot weather report)

Closest report is Worcester Regional Airport, 4.2 nm (7.8 km) ESE. Retrieved 2019/09/16 12:54 UTC (51 minutes ago):

KORH 161254Z 32009KT 10SM CLR 16/09 A3010 RMK AO2 SLP190 T01560094

TAF (pilot weather forecast)

Closest forecast is Worcester Regional Airport, 4.2 nm (7.8 km) ESE. Retrieved 2019/09/16 12:51 UTC (54 minutes ago):

TAF KORH 161147Z 1612/1712 33006KT P6SM SCT025 BKN035 FM161400 33006KT P6SM SCT035 FM161700 31007KT P6SM SCT250 FM162300 33006KT P6SM FEW250